Airport View

Enter AWOS ICAO identifier for current METAR.

ex. KFNL

KAKO 191253Z AUTO 15015G24KT 4SM -SN BR OVC033 M11/M13 A2999 RMK AO2 SLP222 P0000 T11111128

19 Feb 2019 13:21

Frequency: 135.475

Phone: 970-345-2320

Other Area AWOS: K2V6 - KSTK - KFMM - K2V5

TAF KSNY 191127Z 1912/2012 14014KT 2SM -SN BR SCT010 OVC020 TEMPO 1917/1920 1SM -SN BR FM192100 16013KT 3SM -SN BR OVC020